Time;durP1;ratioP1;P1;durP2;ratioP2;P2;SDS_P1;SDS_P2;PMS_P1;PMS_P2;Temp;Humidity;BMP_temperature;BMP_pressure;BME280_temperature;BME280_humidity;BME280_pressure;Samples;Min_cycle;Max_cycle;Signal;HPM_P1;HPM_P2
2023/05/12 00:01:38;;;;;;;5.23;4.90;;;12.40;99.90;;;;;;4976601;28;20198;-78
2023/05/12 00:04:05;;;;;;;4.30;3.90;;;12.40;99.90;;;;;;4976730;28;20549;-78
2023/05/12 00:06:30;;;;;;;6.50;5.90;;;12.40;99.90;;;;;;4977218;28;20637;-78
2023/05/12 00:08:56;;;;;;;5.13;4.73;;;12.40;99.90;;;;;;4976613;28;20460;-79
2023/05/12 00:11:22;;;;;;;5.30;4.90;;;12.30;99.90;;;;;;4975735;28;20266;-78
2023/05/12 00:13:48;;;;;;;6.57;6.17;;;12.30;99.90;;;;;;4976354;28;20203;-78
2023/05/12 00:16:16;;;;;;;8.70;8.00;;;12.20;99.90;;;;;;4976406;28;20176;-77
2023/05/12 00:18:41;;;;;;;7.20;6.70;;;12.10;99.90;;;;;;4976314;28;20284;-78
2023/05/12 00:21:07;;;;;;;5.73;5.30;;;12.10;99.90;;;;;;4976846;28;20423;-77
2023/05/12 00:23:33;;;;;;;8.33;6.90;;;12.00;99.90;;;;;;4994969;28;20176;-78
2023/05/12 00:25:59;;;;;;;7.10;6.47;;;12.10;99.90;;;;;;4996425;28;20191;-78
2023/05/12 00:28:24;;;;;;;7.93;7.23;;;12.10;99.90;;;;;;4994872;28;20196;-78
2023/05/12 00:30:50;;;;;;;8.03;7.33;;;12.20;99.90;;;;;;4981619;28;20615;-79
2023/05/12 00:33:16;;;;;;;6.60;6.00;;;12.20;99.90;;;;;;4974797;28;20278;-78
2023/05/12 00:35:44;;;;;;;5.87;5.47;;;12.30;99.90;;;;;;4975965;28;20199;-78
2023/05/12 00:38:10;;;;;;;6.43;5.60;;;12.30;99.90;;;;;;4976062;28;20204;-78
2023/05/12 00:40:36;;;;;;;6.20;5.60;;;12.20;99.90;;;;;;4987731;28;20842;-78
2023/05/12 00:43:01;;;;;;;6.90;6.40;;;12.10;99.90;;;;;;4987419;28;20447;-79
2023/05/12 00:45:28;;;;;;;7.80;7.00;;;12.20;99.90;;;;;;4976475;28;20184;-79
2023/05/12 00:47:54;;;;;;;8.10;7.50;;;12.20;99.90;;;;;;4976090;28;20199;-78
2023/05/12 00:50:20;;;;;;;9.67;9.00;;;12.20;99.90;;;;;;4976062;28;20415;-79
2023/05/12 00:52:47;;;;;;;10.40;7.27;;;12.20;99.90;;;;;;4976437;28;20295;-78
2023/05/12 00:55:13;;;;;;;8.37;7.67;;;12.20;99.90;;;;;;4975109;28;20450;-78
2023/05/12 00:57:39;;;;;;;7.70;7.03;;;12.20;99.90;;;;;;4975565;28;20448;-78
2023/05/12 01:00:06;;;;;;;17.60;15.90;;;12.10;99.90;;;;;;4975816;28;20520;-78
2023/05/12 01:02:32;;;;;;;38.50;35.00;;;12.10;99.90;;;;;;4976752;28;20431;-78
2023/05/12 01:04:57;;;;;;;23.80;21.27;;;12.10;99.90;;;;;;4977092;28;20925;-78
2023/05/12 01:07:24;;;;;;;9.43;8.60;;;12.10;99.90;;;;;;4974659;28;20266;-78
2023/05/12 01:09:55;;;;;;;10.20;9.40;;;12.10;99.90;;;;;;4976020;28;20184;-78
2023/05/12 01:12:21;;;;;;;9.33;8.63;;;12.20;99.90;;;;;;4975833;28;20463;-78
2023/05/12 01:14:47;;;;;;;9.70;7.63;;;12.20;99.90;;;;;;4975845;28;20523;-79
2023/05/12 01:17:16;;;;;;;8.13;7.43;;;12.20;99.90;;;;;;4976464;28;20538;-78
2023/05/12 01:19:50;;;;;;;7.80;7.10;;;12.10;99.90;;;;;;4974724;28;20592;-78
2023/05/12 01:22:17;;;;;;;10.07;9.17;;;12.10;99.90;;;;;;4976318;28;20435;-79
2023/05/12 01:24:50;;;;;;;11.70;10.60;;;12.10;99.90;;;;;;4976809;28;20434;-79
2023/05/12 01:27:16;;;;;;;29.67;26.97;;;12.10;99.90;;;;;;4976769;28;20443;-78
2023/05/12 01:29:46;;;;;;;19.30;17.77;;;12.00;99.90;;;;;;4976335;28;20526;-79
2023/05/12 01:32:12;;;;;;;11.00;10.13;;;12.00;99.90;;;;;;4975496;28;20498;-78
2023/05/12 01:34:37;;;;;;;9.50;8.63;;;12.10;99.90;;;;;;4976628;28;20420;-78
2023/05/12 01:37:03;;;;;;;9.50;8.80;;;12.10;99.90;;;;;;4976750;28;20420;-79
2023/05/12 01:39:29;;;;;;;11.53;10.00;;;12.10;99.90;;;;;;4976601;28;20180;-78
2023/05/12 01:41:55;;;;;;;9.73;8.80;;;12.10;99.90;;;;;;4957704;28;20194;-78
2023/05/12 01:44:20;;;;;;;8.43;7.73;;;12.10;99.90;;;;;;4975510;28;20180;-79
2023/05/12 01:46:47;;;;;;;9.10;8.30;;;12.10;99.90;;;;;;4975479;28;20522;-79
2023/05/12 01:49:12;;;;;;;10.00;8.60;;;12.10;99.90;;;;;;4974789;28;20296;-79
2023/05/12 01:51:38;;;;;;;9.60;8.70;;;12.10;99.90;;;;;;4974324;28;21008;-78
2023/05/12 01:54:04;;;;;;;9.90;9.00;;;12.00;99.90;;;;;;4974169;28;20208;-78
2023/05/12 01:56:29;;;;;;;10.53;8.50;;;12.10;99.90;;;;;;4974232;28;20176;-78
2023/05/12 01:58:55;;;;;;;9.50;8.53;;;12.00;99.90;;;;;;4957235;28;20448;-79
2023/05/12 02:01:22;;;;;;;9.10;8.30;;;12.00;99.90;;;;;;4974252;28;20223;-78
2023/05/12 02:03:47;;;;;;;11.73;9.97;;;12.00;99.90;;;;;;4973578;28;20250;-78
2023/05/12 02:06:13;;;;;;;9.73;8.87;;;11.90;99.90;;;;;;4974170;28;20451;-78
2023/05/12 02:08:39;;;;;;;11.30;10.10;;;11.90;99.90;;;;;;4973871;28;20188;-78
2023/05/12 02:11:06;;;;;;;12.00;8.97;;;11.90;99.90;;;;;;4974042;28;20419;-79
2023/05/12 02:13:31;;;;;;;9.93;9.03;;;11.90;99.90;;;;;;4974303;28;20207;-78
2023/05/12 02:15:57;;;;;;;10.50;9.60;;;11.90;99.90;;;;;;4972807;28;21129;-78
2023/05/12 02:18:22;;;;;;;13.10;9.37;;;11.80;99.90;;;;;;4973263;28;20268;-78
2023/05/12 02:20:48;;;;;;;10.30;9.40;;;11.80;99.90;;;;;;4974086;28;20165;-77
2023/05/12 02:23:13;;;;;;;9.70;8.70;;;11.80;99.90;;;;;;4974222;28;20865;-79
2023/05/12 02:25:39;;;;;;;13.07;10.60;;;11.80;99.90;;;;;;4973807;28;20272;-78
2023/05/12 02:28:06;;;;;;;10.37;9.43;;;11.80;99.90;;;;;;4972884;28;20199;-77
2023/05/12 02:30:32;;;;;;;12.00;10.93;;;11.80;99.90;;;;;;4973774;28;20176;-78
2023/05/12 02:32:57;;;;;;;11.03;10.03;;;11.80;99.90;;;;;;4973639;28;20555;-78
2023/05/12 02:35:23;;;;;;;10.60;9.23;;;11.80;99.90;;;;;;4973632;28;20187;-78
2023/05/12 02:37:48;;;;;;;13.83;12.43;;;11.80;99.90;;;;;;4974044;28;20204;-78
2023/05/12 02:40:15;;;;;;;11.67;10.57;;;11.80;99.90;;;;;;4972875;28;20184;-79
2023/05/12 02:42:42;;;;;;;11.37;10.27;;;11.80;99.90;;;;;;4973785;28;20184;-77
2023/05/12 02:45:09;;;;;;;11.30;10.13;;;11.80;99.90;;;;;;4973936;28;21098;-79
2023/05/12 02:47:35;;;;;;;11.23;10.20;;;11.80;99.90;;;;;;4973901;28;20956;-77
2023/05/12 02:50:01;;;;;;;12.30;10.30;;;11.80;99.90;;;;;;4973838;28;20423;-78
2023/05/12 02:52:26;;;;;;;11.10;10.10;;;11.90;99.90;;;;;;4973531;28;20473;-78
2023/05/12 02:54:52;;;;;;;11.97;10.53;;;11.90;99.90;;;;;;4973804;28;20507;-78
2023/05/12 02:57:17;;;;;;;12.43;11.37;;;11.90;99.90;;;;;;4973618;28;20219;-78
2023/05/12 02:59:43;;;;;;;11.57;10.53;;;11.90;99.90;;;;;;4973733;28;20168;-78
2023/05/12 03:02:08;;;;;;;12.57;11.27;;;11.90;99.90;;;;;;4973625;28;20180;-78
2023/05/12 03:04:34;;;;;;;11.60;10.50;;;11.90;99.90;;;;;;4972513;28;20239;-78
2023/05/12 03:06:59;;;;;;;12.90;11.73;;;11.90;99.90;;;;;;4956192;28;20251;-78
2023/05/12 03:09:25;;;;;;;13.30;11.90;;;11.90;99.90;;;;;;4972973;28;20180;-78
2023/05/12 03:11:50;;;;;;;14.63;13.30;;;11.90;99.90;;;;;;4973637;28;20168;-78
2023/05/12 03:14:16;;;;;;;11.77;10.57;;;11.90;99.90;;;;;;4973326;28;20208;-78
2023/05/12 03:16:41;;;;;;;11.40;10.27;;;11.90;99.90;;;;;;4972364;28;20180;-78
2023/05/12 03:19:07;;;;;;;12.27;11.20;;;12.00;99.90;;;;;;4973605;28;20201;-78
2023/05/12 03:21:32;;;;;;;13.80;12.40;;;12.00;99.90;;;;;;4974131;28;20186;-79
2023/05/12 03:23:58;;;;;;;13.47;12.07;;;11.90;99.90;;;;;;4973794;28;20264;-79
2023/05/12 03:26:23;;;;;;;12.80;11.50;;;11.90;99.90;;;;;;4975864;28;20614;-77
2023/05/12 03:28:49;;;;;;;11.73;10.63;;;11.90;99.90;;;;;;4976254;28;20224;-79
2023/05/12 03:31:15;;;;;;;12.47;11.33;;;12.00;99.90;;;;;;4976960;28;20263;-77
2023/05/12 03:33:40;;;;;;;12.30;11.00;;;12.00;99.90;;;;;;4959633;28;20202;-78
2023/05/12 03:36:06;;;;;;;12.17;10.97;;;12.10;99.90;;;;;;4976917;28;20416;-79
2023/05/12 03:38:31;;;;;;;17.73;11.50;;;12.10;99.90;;;;;;4975951;28;20608;-79
2023/05/12 03:41:07;;;;;;;14.57;13.00;;;12.10;99.90;;;;;;4977007;28;20173;-79
2023/05/12 03:43:32;;;;;;;13.40;12.20;;;12.10;99.90;;;;;;4957780;28;20199;-78
2023/05/12 03:45:58;;;;;;;14.13;12.60;;;12.10;99.90;;;;;;4957785;29;20428;-79
2023/05/12 03:48:24;;;;;;;15.20;13.60;;;12.10;99.90;;;;;;4956905;28;20558;-78
2023/05/12 03:50:49;;;;;;;15.40;13.50;;;12.10;99.90;;;;;;4960031;28;20662;-78
2023/05/12 03:53:15;;;;;;;13.37;12.17;;;12.10;99.90;;;;;;4976549;28;20211;-78
2023/05/12 03:55:40;;;;;;;13.07;11.40;;;12.10;99.90;;;;;;4976509;28;20535;-78
2023/05/12 03:58:06;;;;;;;14.27;12.90;;;12.10;99.90;;;;;;4959000;28;20207;-78
2023/05/12 04:00:32;;;;;;;13.07;11.97;;;12.10;99.90;;;;;;4976262;28;20183;-78
2023/05/12 04:02:58;;;;;;;14.80;13.40;;;12.20;99.90;;;;;;4975629;28;20458;-78
2023/05/12 04:05:23;;;;;;;13.00;11.77;;;12.20;99.90;;;;;;4976045;28;20517;-78
2023/05/12 04:07:49;;;;;;;14.40;13.07;;;12.20;99.90;;;;;;4976718;28;20563;-77
2023/05/12 04:10:15;;;;;;;15.10;13.60;;;12.10;99.90;;;;;;4977601;28;20733;-78
2023/05/12 04:12:40;;;;;;;15.20;13.70;;;12.20;99.90;;;;;;4976232;28;20204;-78
2023/05/12 04:15:06;;;;;;;15.43;13.70;;;12.10;99.90;;;;;;4975218;28;20168;-77
2023/05/12 04:17:32;;;;;;;14.80;13.50;;;12.10;99.90;;;;;;4975717;28;20292;-77
2023/05/12 04:19:58;;;;;;;14.23;12.70;;;12.10;99.90;;;;;;4975824;28;20419;-77
2023/05/12 04:22:24;;;;;;;15.10;13.70;;;12.20;99.90;;;;;;4976179;28;20176;-78
2023/05/12 04:24:49;;;;;;;15.20;13.23;;;12.30;99.90;;;;;;4975955;28;20172;-78
2023/05/12 04:27:15;;;;;;;15.40;12.23;;;12.40;99.90;;;;;;4974953;28;20258;-78
2023/05/12 04:29:40;;;;;;;14.73;13.27;;;12.50;99.90;;;;;;4975693;28;20172;-78
2023/05/12 04:32:06;;;;;;;14.90;12.10;;;12.50;99.90;;;;;;4975944;28;20171;-77
2023/05/12 04:34:32;;;;;;;15.20;13.70;;;12.50;99.90;;;;;;4976010;28;20542;-77
2023/05/12 04:36:57;;;;;;;13.50;12.30;;;12.50;99.90;;;;;;4975297;28;20420;-78
2023/05/12 04:39:22;;;;;;;13.37;11.77;;;12.40;99.90;;;;;;4974466;28;20184;-78
2023/05/12 04:41:48;;;;;;;15.00;13.47;;;12.40;99.90;;;;;;4975797;28;20164;-79
2023/05/12 04:44:14;;;;;;;14.07;12.77;;;12.50;99.90;;;;;;4976084;28;20180;-78
2023/05/12 04:46:40;;;;;;;14.13;12.83;;;12.50;99.90;;;;;;4958190;28;20630;-78
2023/05/12 04:49:05;;;;;;;13.37;12.13;;;12.60;99.90;;;;;;4975392;28;20534;-78
2023/05/12 04:51:31;;;;;;;14.60;13.20;;;12.80;99.90;;;;;;4971917;28;20192;-78
2023/05/12 04:53:57;;;;;;;13.83;12.50;;;12.90;99.90;;;;;;4975465;28;20192;-78
2023/05/12 04:56:22;;;;;;;13.57;12.17;;;12.80;99.90;;;;;;4975812;28;20251;-78
2023/05/12 04:58:48;;;;;;;14.73;13.23;;;12.70;99.90;;;;;;4975264;28;20223;-77
2023/05/12 05:01:13;;;;;;;13.90;12.50;;;12.80;99.90;;;;;;4975044;28;20268;-78
2023/05/12 05:03:39;;;;;;;17.33;13.93;;;12.90;99.90;;;;;;4975111;28;20180;-78
2023/05/12 05:06:05;;;;;;;13.40;12.20;;;12.80;99.90;;;;;;4976912;28;20184;-77
2023/05/12 05:08:30;;;;;;;14.10;12.70;;;12.80;99.90;;;;;;4976964;28;20456;-77
2023/05/12 05:10:56;;;;;;;13.80;12.53;;;12.90;99.90;;;;;;4974983;28;20192;-78
2023/05/12 05:13:21;;;;;;;14.37;12.87;;;13.00;99.90;;;;;;4975678;28;20215;-78
2023/05/12 05:15:53;;;;;;;13.23;12.00;;;13.10;99.90;;;;;;4975472;28;20176;-77
2023/05/12 05:18:19;;;;;;;13.23;11.93;;;13.20;99.90;;;;;;4975629;28;20557;-77
2023/05/12 05:20:45;;;;;;;14.67;13.17;;;13.20;99.90;;;;;;4975854;28;20506;-78
2023/05/12 05:23:11;;;;;;;13.13;11.80;;;13.20;99.90;;;;;;4974393;28;20192;-78
2023/05/12 05:25:36;;;;;;;13.77;12.47;;;13.20;99.90;;;;;;4974712;28;20274;-78
2023/05/12 05:28:02;;;;;;;14.47;13.27;;;13.30;99.90;;;;;;4975851;28;20878;-77
2023/05/12 05:30:27;;;;;;;13.00;11.80;;;13.30;99.90;;;;;;4976004;28;20272;-78
2023/05/12 05:32:53;;;;;;;13.63;12.43;;;13.30;99.90;;;;;;4975968;28;20251;-78
2023/05/12 05:35:18;;;;;;;12.20;11.00;;;13.20;99.90;;;;;;4975024;28;20192;-77
2023/05/12 05:37:44;;;;;;;12.83;11.63;;;13.10;99.90;;;;;;4976133;28;20283;-78
2023/05/12 05:40:10;;;;;;;12.10;11.00;;;13.10;99.90;;;;;;4975308;28;20172;-78
2023/05/12 05:42:35;;;;;;;13.50;12.20;;;13.20;99.90;;;;;;4975127;28;20236;-78
2023/05/12 05:45:01;;;;;;;14.13;12.63;;;13.20;99.90;;;;;;4958278;28;20180;-78
2023/05/12 05:47:27;;;;;;;12.77;11.60;;;13.20;99.90;;;;;;4974894;28;20208;-78
2023/05/12 05:49:53;;;;;;;12.27;11.27;;;13.00;99.90;;;;;;4951868;28;20733;-78
2023/05/12 05:52:19;;;;;;;12.20;11.07;;;13.10;99.90;;;;;;4977526;28;20180;-78
2023/05/12 05:54:45;;;;;;;12.93;11.70;;;13.30;99.90;;;;;;4961549;28;20803;-78
2023/05/12 05:57:10;;;;;;;11.30;10.10;;;13.30;99.90;;;;;;4980953;28;20578;-79
2023/05/12 05:59:36;;;;;;;12.47;11.40;;;13.50;99.90;;;;;;4975490;28;20176;-78
2023/05/12 06:02:02;;;;;;;14.77;13.33;;;13.40;99.90;;;;;;4977877;28;20199;-78
2023/05/12 06:04:27;;;;;;;14.67;13.27;;;13.50;99.90;;;;;;4959448;29;20643;-78
2023/05/12 06:06:53;;;;;;;14.10;12.90;;;13.60;99.90;;;;;;4959411;28;20428;-78
2023/05/12 06:09:19;;;;;;;15.20;13.80;;;13.60;99.90;;;;;;4958309;28;20172;-78
2023/05/12 06:11:44;;;;;;;13.10;12.00;;;13.80;99.90;;;;;;4966784;28;20793;-78
2023/05/12 06:14:10;;;;;;;13.13;11.93;;;13.90;99.90;;;;;;4977004;28;20196;-78
2023/05/12 06:16:36;;;;;;;12.40;11.30;;;14.00;99.90;;;;;;4976297;28;20180;-78
2023/05/12 06:19:01;;;;;;;13.33;12.13;;;14.00;99.90;;;;;;4975968;28;20458;-78
2023/05/12 06:21:27;;;;;;;11.57;10.47;;;14.10;99.90;;;;;;4975186;28;20231;-78
2023/05/12 06:23:54;;;;;;;11.70;10.70;;;14.20;99.90;;;;;;4976313;28;20184;-78
2023/05/12 06:26:20;;;;;;;11.30;10.30;;;14.20;99.90;;;;;;4975806;28;20641;-78
2023/05/12 06:28:46;;;;;;;10.60;9.60;;;14.20;99.90;;;;;;4960872;28;20527;-77
2023/05/12 06:31:12;;;;;;;10.37;9.40;;;14.20;99.90;;;;;;4957735;28;21206;-77
2023/05/12 06:33:38;;;;;;;11.40;10.40;;;14.30;99.90;;;;;;4965348;28;20204;-77
2023/05/12 06:36:03;;;;;;;10.90;9.93;;;14.20;99.90;;;;;;4972390;28;20176;-77
2023/05/12 06:38:29;;;;;;;8.40;7.70;;;14.40;99.90;;;;;;4973706;28;20234;-78
2023/05/12 06:40:55;;;;;;;9.83;8.70;;;14.50;99.90;;;;;;4973380;28;20172;-77
2023/05/12 06:43:20;;;;;;;9.03;8.10;;;14.40;99.90;;;;;;4972723;28;20198;-77
2023/05/12 06:45:46;;;;;;;8.40;7.40;;;14.40;99.90;;;;;;4969284;28;20242;-78
2023/05/12 06:48:11;;;;;;;10.30;9.20;;;14.60;99.90;;;;;;4960711;28;20258;-79
2023/05/12 06:50:37;;;;;;;10.27;9.23;;;14.70;99.90;;;;;;4968779;28;20184;-78
2023/05/12 06:53:02;;;;;;;10.60;9.37;;;14.70;99.90;;;;;;4970415;28;20228;-79
2023/05/12 06:55:28;;;;;;;9.80;8.93;;;14.80;99.90;;;;;;4974366;28;20585;-78
2023/05/12 06:57:54;;;;;;;9.97;9.10;;;14.80;99.90;;;;;;4972568;28;20246;-78
2023/05/12 07:00:23;;;;;;;8.30;7.60;;;14.90;99.90;;;;;;4973002;28;20223;-78
2023/05/12 07:02:49;;;;;;;9.40;8.60;;;15.00;99.90;;;;;;4972974;28;20522;-78
2023/05/12 07:05:14;;;;;;;9.93;8.93;;;15.00;99.90;;;;;;4986475;28;20473;-78
2023/05/12 07:07:40;;;;;;;9.60;8.80;;;14.90;99.90;;;;;;4974810;28;20196;-78
2023/05/12 07:10:07;;;;;;;10.20;9.30;;;14.50;99.90;;;;;;4976647;28;20199;-78
2023/05/12 07:12:32;;;;;;;9.93;9.03;;;14.50;99.90;;;;;;4978452;28;20187;-78
2023/05/12 07:14:58;;;;;;;9.67;8.87;;;14.70;99.90;;;;;;4973219;28;20921;-78
2023/05/12 07:17:23;;;;;;;8.20;7.50;;;14.90;99.90;;;;;;4984607;28;20204;-75
2023/05/12 07:19:49;;;;;;;8.47;7.67;;;15.00;99.90;;;;;;4979648;28;20177;-77
2023/05/12 07:22:14;;;;;;;9.63;8.73;;;15.20;99.90;;;;;;4976308;28;20590;-77
2023/05/12 07:24:40;;;;;;;8.40;7.70;;;15.30;99.90;;;;;;4973664;28;20185;-77
2023/05/12 07:27:07;;;;;;;8.57;7.80;;;15.20;99.90;;;;;;4976083;28;20598;-79
2023/05/12 07:29:32;;;;;;;8.37;7.57;;;15.20;99.90;;;;;;4985091;28;22002;-79
2023/05/12 07:31:58;;;;;;;13.07;9.67;;;15.20;99.90;;;;;;4976344;28;20510;-78
2023/05/12 07:34:23;;;;;;;8.90;8.00;;;15.40;99.90;;;;;;4980517;28;20239;-78
2023/05/12 07:36:49;;;;;;;8.53;7.73;;;15.50;99.90;;;;;;4988180;28;20174;-78
2023/05/12 07:39:18;;;;;;;9.80;8.83;;;15.60;99.90;;;;;;4972373;28;20557;-74
2023/05/12 07:41:43;;;;;;;8.97;8.27;;;15.90;99.90;;;;;;4972633;28;20184;-74
2023/05/12 07:44:09;;;;;;;8.50;7.70;;;16.40;99.90;;;;;;4976977;28;20960;-75
2023/05/12 07:46:35;;;;;;;9.80;9.00;;;16.50;99.90;;;;;;4975281;28;20184;-75
2023/05/12 07:49:01;;;;;;;8.27;7.50;;;16.70;99.90;;;;;;4973114;28;20196;-77
2023/05/12 07:51:27;;;;;;;7.67;7.10;;;16.60;99.90;;;;;;4973566;28;20192;-77
2023/05/12 07:53:54;;;;;;;8.00;7.20;;;16.60;99.90;;;;;;4976754;28;20204;-78
2023/05/12 07:56:20;;;;;;;9.47;8.57;;;16.50;99.90;;;;;;4982526;28;20465;-77
2023/05/12 07:58:46;;;;;;;7.60;7.10;;;16.40;99.90;;;;;;4996628;28;20582;-76
2023/05/12 08:01:11;;;;;;;8.43;7.83;;;16.30;99.90;;;;;;5000218;28;20434;-77
2023/05/12 08:03:37;;;;;;;7.63;7.03;;;16.20;99.90;;;;;;4991451;28;20195;-77
2023/05/12 08:06:06;;;;;;;7.20;6.50;;;16.20;99.90;;;;;;4979856;28;20184;-77
2023/05/12 08:08:32;;;;;;;7.57;6.97;;;16.30;99.90;;;;;;4985352;28;20916;-77
2023/05/12 08:10:58;;;;;;;7.90;7.30;;;16.50;99.90;;;;;;4980420;28;20448;-78
2023/05/12 08:13:25;;;;;;;7.40;6.80;;;16.70;99.90;;;;;;4968886;28;20463;-78
2023/05/12 08:15:51;;;;;;;7.27;6.77;;;16.90;99.90;;;;;;4970617;28;20228;-78
2023/05/12 08:18:16;;;;;;;6.63;6.03;;;17.10;99.90;;;;;;4973007;28;20486;-77
2023/05/12 08:20:42;;;;;;;7.20;6.20;;;17.30;99.90;;;;;;4979536;28;20667;-78
2023/05/12 08:23:08;;;;;;;6.80;6.20;;;17.50;99.90;;;;;;4967626;28;20196;-77
2023/05/12 08:25:35;;;;;;;5.50;5.10;;;17.70;99.90;;;;;;4973855;28;20536;-78
2023/05/12 08:28:00;;;;;;;5.10;4.70;;;18.00;99.90;;;;;;4981163;28;21789;-78
2023/05/12 08:30:26;;;;;;;5.43;5.03;;;18.30;99.90;;;;;;4984583;28;20529;-77
2023/05/12 08:32:53;;;;;;;6.73;6.17;;;18.40;99.90;;;;;;4972796;28;20838;-78
2023/05/12 08:35:19;;;;;;;6.50;5.97;;;18.30;99.90;;;;;;4974482;28;20582;-78
2023/05/12 08:37:44;;;;;;;6.77;4.80;;;18.20;99.90;;;;;;4975198;28;20535;-78
2023/05/12 08:40:23;;;;;;;7.40;6.07;;;18.00;99.90;;;;;;4973628;28;20255;-78
2023/05/12 08:43:03;;;;;;;6.23;5.70;;;17.50;99.90;;;;;;4980413;28;20188;-78
2023/05/12 08:45:28;;;;;;;6.90;5.90;;;17.30;99.90;;;;;;4965858;28;20935;-78
2023/05/12 08:47:55;;;;;;;6.17;5.67;;;17.00;99.90;;;;;;4981485;28;20514;-79
2023/05/12 08:50:21;;;;;;;5.87;5.37;;;16.80;99.90;;;;;;4982710;28;20654;-79
2023/05/12 08:52:48;;;;;;;5.00;4.60;;;16.70;99.90;;;;;;4978872;28;20475;-76
2023/05/12 08:55:14;;;;;;;6.13;5.73;;;16.60;99.90;;;;;;4971509;28;20534;-78
2023/05/12 08:57:44;;;;;;;6.07;5.57;;;16.50;99.90;;;;;;4972555;28;20541;-77
2023/05/12 09:00:12;;;;;;;5.97;5.33;;;16.60;99.90;;;;;;4978400;28;20511;-78
2023/05/12 09:02:39;;;;;;;6.30;5.70;;;16.70;99.90;;;;;;4967005;28;20860;-76
2023/05/12 09:05:06;;;;;;;4.87;4.47;;;16.70;99.90;;;;;;4976358;28;20431;-75
2023/05/12 09:07:33;;;;;;;5.73;4.27;;;16.80;99.90;;;;;;4970324;28;20455;-75
2023/05/12 09:10:02;;;;;;;9.47;8.57;;;16.90;99.90;;;;;;4971997;28;20444;-75
2023/05/12 09:12:32;;;;;;;9.50;8.70;;;17.00;99.90;;;;;;4973361;28;20474;-78
2023/05/12 09:15:09;;;;;;;6.20;5.70;;;17.10;99.90;;;;;;4974926;28;20439;-78
2023/05/12 09:17:35;;;;;;;5.73;5.10;;;17.20;99.90;;;;;;4970526;28;20491;-78
2023/05/12 09:20:02;;;;;;;4.93;4.40;;;16.90;99.90;;;;;;4969355;28;20565;-77
2023/05/12 09:22:29;;;;;;;4.80;4.40;;;16.90;99.90;;;;;;4979754;28;20182;-77
2023/05/12 09:24:54;;;;;;;5.33;4.93;;;17.00;99.90;;;;;;4984610;28;20466;-78
2023/05/12 09:27:27;;;;;;;5.40;4.90;;;17.00;99.90;;;;;;4978356;28;20913;-77
2023/05/12 09:29:53;;;;;;;4.30;4.00;;;16.80;99.90;;;;;;4976535;28;20235;-77
2023/05/12 09:32:32;;;;;;;6.40;4.23;;;16.80;99.90;;;;;;4969787;28;20431;-77
2023/05/12 09:35:03;;;;;;;5.13;4.73;;;16.70;99.90;;;;;;4971948;28;20458;-77
2023/05/12 09:37:31;;;;;;;6.93;6.33;;;16.80;99.90;;;;;;4967950;28;20491;-77
2023/05/12 09:40:04;;;;;;;5.40;5.00;;;16.80;99.90;;;;;;4967781;28;20949;-77
2023/05/12 09:42:33;;;;;;;4.53;4.13;;;17.10;99.90;;;;;;4974665;28;20454;-78
2023/05/12 09:45:00;;;;;;;4.57;4.27;;;16.90;99.90;;;;;;4973014;28;21104;-78
2023/05/12 09:47:28;;;;;;;3.80;3.17;;;17.30;99.90;;;;;;4972584;28;20905;-78
2023/05/12 09:49:56;;;;;;;3.40;3.10;;;18.00;99.90;;;;;;4970978;28;20476;-77
2023/05/12 09:52:22;;;;;;;3.23;3.03;;;18.50;99.90;;;;;;4976768;28;20539;-77
2023/05/12 09:54:47;;;;;;;3.60;3.30;;;19.00;99.90;;;;;;4969154;28;20546;-77
2023/05/12 09:57:15;;;;;;;2.77;2.67;;;19.20;99.90;;;;;;4973366;28;20208;-77
2023/05/12 09:59:42;;;;;;;3.10;2.90;;;19.40;99.90;;;;;;4973384;28;20673;-77
2023/05/12 10:02:11;;;;;;;3.60;3.40;;;19.70;99.90;;;;;;4971415;28;20463;-78
2023/05/12 10:04:51;;;;;;;4.30;4.00;;;20.00;99.90;;;;;;4977367;28;20493;-78
2023/05/12 10:07:21;;;;;;;3.83;3.53;;;20.10;99.90;;;;;;4974953;28;20471;-79
2023/05/12 10:09:48;;;;;;;3.90;3.53;;;20.30;99.90;;;;;;4972251;28;20999;-79
2023/05/12 10:12:15;;;;;;;5.40;5.00;;;19.90;99.90;;;;;;4969142;28;20443;-78
2023/05/12 10:14:42;;;;;;;4.60;4.30;;;19.70;99.90;;;;;;4968624;28;20471;-77
2023/05/12 10:17:08;;;;;;;4.20;3.80;;;19.20;99.90;;;;;;4972759;28;20455;-78
2023/05/12 10:19:34;;;;;;;4.20;3.90;;;19.40;99.90;;;;;;4969287;28;20466;-75
2023/05/12 10:22:00;;;;;;;4.70;4.40;;;19.30;99.90;;;;;;4972423;28;20435;-78
2023/05/12 10:24:27;;;;;;;4.97;4.57;;;19.30;99.90;;;;;;4984052;28;20555;-77
2023/05/12 10:26:56;;;;;;;4.50;4.20;;;19.30;99.90;;;;;;4974061;28;20431;-79
2023/05/12 10:29:31;;;;;;;4.80;4.47;;;19.00;99.90;;;;;;4972783;28;20449;-78
2023/05/12 10:31:58;;;;;;;4.87;4.57;;;19.10;99.90;;;;;;4974483;28;20430;-78
2023/05/12 10:34:38;;;;;;;5.27;4.97;;;19.30;99.90;;;;;;4973790;28;20550;-77
2023/05/12 10:37:08;;;;;;;4.57;4.17;;;19.50;99.90;;;;;;4975697;28;20948;-78
2023/05/12 10:39:34;;;;;;;4.30;3.90;;;19.70;99.90;;;;;;4976933;28;20783;-79
2023/05/12 10:42:07;;;;;;;5.90;5.50;;;19.70;99.90;;;;;;4960600;28;20430;-78
2023/05/12 10:44:33;;;;;;;4.80;4.50;;;19.80;99.90;;;;;;4978369;28;20665;-79
2023/05/12 10:46:59;;;;;;;4.17;3.87;;;19.90;99.90;;;;;;4977859;28;20839;-78
2023/05/12 10:49:37;;;;;;;4.93;4.53;;;20.10;99.90;;;;;;4977158;28;20439;-78
2023/05/12 10:52:04;;;;;;;5.30;4.77;;;19.90;99.90;;;;;;4977885;28;20172;-78
2023/05/12 10:54:40;;;;;;;4.97;4.67;;;19.80;99.90;;;;;;4977876;28;20471;-79
2023/05/12 10:57:12;;;;;;;4.90;3.60;;;19.50;99.90;;;;;;4983765;28;20932;-75
2023/05/12 10:59:47;;;;;;;4.10;3.90;;;19.30;99.90;;;;;;4973336;28;20518;-75
2023/05/12 11:02:23;;;;;;;3.30;3.00;;;19.00;99.90;;;;;;4975235;28;20493;-74
2023/05/12 11:04:55;;;;;;;3.30;3.03;;;19.20;99.90;;;;;;4977886;28;20430;-75
2023/05/12 11:07:29;;;;;;;5.53;5.13;;;19.20;99.90;;;;;;4968921;28;20478;-76
2023/05/12 11:09:57;;;;;;;5.53;5.00;;;19.10;99.90;;;;;;4959333;28;20420;-77
2023/05/12 11:12:25;;;;;;;3.63;3.43;;;19.10;99.90;;;;;;4970217;28;20461;-77
2023/05/12 11:14:51;;;;;;;5.53;5.07;;;19.00;99.90;;;;;;4975658;28;20856;-77
2023/05/12 11:17:17;;;;;;;5.17;4.80;;;18.70;99.90;;;;;;4975726;28;20505;-76
2023/05/12 11:19:47;;;;;;;4.40;4.10;;;18.30;99.90;;;;;;4971360;28;20180;-75
2023/05/12 11:22:15;;;;;;;5.70;4.97;;;17.90;99.90;;;;;;4957365;28;20536;-74
2023/05/12 11:24:41;;;;;;;5.77;5.27;;;17.70;99.90;;;;;;4956160;28;20423;-75
2023/05/12 11:27:13;;;;;;;6.63;4.63;;;17.50;99.90;;;;;;4972118;28;20443;-75
2023/05/12 11:29:40;;;;;;;5.60;5.20;;;17.20;99.90;;;;;;4975525;28;20432;-74
2023/05/12 11:32:07;;;;;;;6.10;5.60;;;17.00;99.90;;;;;;4974946;28;20448;-74
2023/05/12 11:34:33;;;;;;;4.97;4.67;;;16.90;99.90;;;;;;4975933;28;20466;-74
2023/05/12 11:36:58;;;;;;;5.73;5.13;;;16.90;99.90;;;;;;4975834;28;20412;-74
2023/05/12 11:39:26;;;;;;;4.70;4.40;;;16.90;99.90;;;;;;4975334;28;20496;-75
2023/05/12 11:41:52;;;;;;;4.80;4.50;;;16.90;99.90;;;;;;4974869;28;20219;-74
2023/05/12 11:44:21;;;;;;;4.97;4.67;;;16.90;99.90;;;;;;4975681;28;20430;-73
2023/05/12 11:47:00;;;;;;;4.60;4.30;;;16.90;99.90;;;;;;4973631;28;20531;-72
2023/05/12 11:49:27;;;;;;;5.10;4.60;;;16.90;99.90;;;;;;4975427;28;20454;-72
2023/05/12 11:51:59;;;;;;;4.73;4.33;;;16.70;99.90;;;;;;4975341;28;20434;-73
2023/05/12 11:54:27;;;;;;;3.93;3.63;;;16.80;99.90;;;;;;4974407;28;20471;-72
2023/05/12 11:56:54;;;;;;;3.90;3.70;;;16.80;99.90;;;;;;4975437;28;20933;-72
2023/05/12 11:59:30;;;;;;;4.00;3.70;;;16.70;99.90;;;;;;4975249;28;20462;-73
2023/05/12 12:01:57;;;;;;;3.77;3.57;;;16.80;99.90;;;;;;4966971;28;20435;-73
2023/05/12 12:04:40;;;;;;;3.60;3.30;;;16.80;99.90;;;;;;4976507;28;20434;-73
2023/05/12 12:07:07;;;;;;;3.30;3.00;;;16.90;99.90;;;;;;4970553;28;20510;-72
2023/05/12 12:09:39;;;;;;;3.70;2.90;;;17.00;99.90;;;;;;4972228;28;20956;-72
2023/05/12 12:12:06;;;;;;;2.90;2.70;;;17.10;99.90;;;;;;4973219;28;20436;-71
2023/05/12 12:14:33;;;;;;;2.47;2.27;;;17.30;99.90;;;;;;4980678;28;20466;-73
2023/05/12 12:16:59;;;;;;;3.83;2.80;;;17.40;99.90;;;;;;4972501;28;20458;-73
2023/05/12 12:19:26;;;;;;;2.73;2.50;;;17.40;99.90;;;;;;4970186;28;20443;-73
2023/05/12 12:21:52;;;;;;;4.87;2.73;;;17.30;99.90;;;;;;4974920;28;20435;-73
2023/05/12 12:24:18;;;;;;;2.37;2.27;;;17.30;99.90;;;;;;4986833;28;20497;-72
2023/05/12 12:26:43;;;;;;;3.97;3.20;;;17.20;99.90;;;;;;4971500;28;20972;-73
2023/05/12 12:29:09;;;;;;;2.20;2.10;;;17.20;99.90;;;;;;4973536;28;20214;-74
2023/05/12 12:31:35;;;;;;;2.60;2.40;;;17.20;99.90;;;;;;4983736;28;20183;-73
2023/05/12 12:34:01;;;;;;;5.90;3.03;;;17.30;99.90;;;;;;4973362;28;20207;-73
2023/05/12 12:36:27;;;;;;;3.13;2.93;;;17.30;99.90;;;;;;4975670;28;20445;-73